Time;durP1;ratioP1;P1;durP2;ratioP2;P2;SDS_P1;SDS_P2;PMS_P1;PMS_P2;Temp;Humidity;BMP_temperature;BMP_pressure;BME280_temperature;BME280_humidity;BME280_pressure;Samples;Min_cycle;Max_cycle;Signal;HPM_P1;HPM_P2
2023/08/13 00:01:13;;;;;;;16.02;3.60;;;16.80;99.90;;;;;;4877016;29;20471;-82
2023/08/13 00:03:39;;;;;;;13.45;2.00;;;16.80;99.90;;;;;;4877734;29;20483;-82
2023/08/13 00:06:04;;;;;;;19.60;2.90;;;16.70;99.90;;;;;;4878362;29;20033;-82
2023/08/13 00:08:30;;;;;;;10.93;2.20;;;16.70;99.90;;;;;;4902958;23;20075;-84
2023/08/13 00:10:56;;;;;;;17.63;2.88;;;16.70;99.90;;;;;;4914725;29;20071;-86
2023/08/13 00:13:21;;;;;;;16.00;2.42;;;16.60;99.90;;;;;;4915171;29;20024;-85
2023/08/13 00:15:47;;;;;;;13.75;2.70;;;16.60;99.90;;;;;;4916146;29;20489;-84
2023/08/13 00:18:12;;;;;;;12.48;2.33;;;16.60;99.90;;;;;;4915612;29;20030;-85
2023/08/13 00:20:38;;;;;;;16.30;3.75;;;16.60;99.90;;;;;;4915922;29;20039;-83
2023/08/13 00:23:04;;;;;;;13.00;2.05;;;16.70;99.90;;;;;;4915515;29;20828;-84
2023/08/13 00:25:30;;;;;;;16.30;3.38;;;16.70;99.90;;;;;;4915096;29;20107;-84
2023/08/13 00:27:55;;;;;;;23.13;6.07;;;16.70;99.90;;;;;;4916137;29;20020;-87
2023/08/13 00:30:21;;;;;;;14.95;2.72;;;16.80;99.90;;;;;;4921856;29;20024;-84
2023/08/13 00:32:46;;;;;;;15.48;2.38;;;16.80;99.90;;;;;;4915417;29;20020;-84
2023/08/13 00:35:12;;;;;;;14.25;2.35;;;16.80;99.90;;;;;;4914666;29;20040;-85
2023/08/13 00:37:38;;;;;;;9.85;2.40;;;16.90;99.90;;;;;;4914178;29;20052;-85
2023/08/13 00:40:04;;;;;;;11.35;3.33;;;16.90;99.90;;;;;;4924813;29;20123;-85
2023/08/13 00:42:30;;;;;;;10.90;2.50;;;16.90;99.90;;;;;;4913018;29;20453;-85
2023/08/13 00:44:55;;;;;;;18.25;3.08;;;16.90;99.90;;;;;;4912504;29;20036;-85
2023/08/13 00:47:21;;;;;;;15.55;3.60;;;16.90;99.90;;;;;;4914949;29;20080;-83
2023/08/13 00:49:49;;;;;;;21.08;2.97;;;16.90;99.90;;;;;;4915153;29;20020;-85
2023/08/13 00:52:15;;;;;;;16.42;2.25;;;16.90;99.90;;;;;;4915846;29;20024;-86
2023/08/13 00:54:41;;;;;;;17.35;2.45;;;16.90;99.90;;;;;;4914487;29;20032;-86
2023/08/13 00:57:08;;;;;;;14.27;2.15;;;16.90;99.90;;;;;;4928046;29;20560;-84
2023/08/13 00:59:34;;;;;;;15.00;2.92;;;16.90;99.90;;;;;;4915552;29;20034;-83
2023/08/13 01:02:00;;;;;;;16.25;2.63;;;16.90;99.90;;;;;;4915008;29;20048;-86
2023/08/13 01:04:26;;;;;;;15.13;2.42;;;16.90;99.90;;;;;;4913859;29;20040;-85
2023/08/13 01:07:02;;;;;;;13.38;3.38;;;16.90;99.90;;;;;;4915085;29;20489;-85
2023/08/13 01:09:28;;;;;;;19.33;2.50;;;16.90;99.90;;;;;;4937359;23;20159;-81
2023/08/13 01:12:07;;;;;;;11.90;2.40;;;16.90;99.90;;;;;;4932223;29;20019;-82
2023/08/13 01:14:40;;;;;;;14.05;2.55;;;16.90;99.90;;;;;;4919537;29;20043;-83
2023/08/13 01:17:07;;;;;;;13.05;2.35;;;16.80;99.90;;;;;;4926998;29;20031;-84
2023/08/13 01:19:33;;;;;;;14.13;2.70;;;16.80;99.90;;;;;;4931914;29;20052;-82
2023/08/13 01:21:58;;;;;;;16.33;3.03;;;16.80;99.90;;;;;;4924902;29;20052;-81
2023/08/13 01:24:24;;;;;;;14.65;2.15;;;16.80;99.90;;;;;;4931699;29;20031;-82
2023/08/13 01:27:06;;;;;;;14.45;2.13;;;16.80;99.90;;;;;;4931948;29;20020;-82
2023/08/13 01:29:40;;;;;;;12.55;2.50;;;16.80;99.90;;;;;;4932346;29;20031;-83
2023/08/13 01:32:09;;;;;;;14.68;2.25;;;16.80;99.90;;;;;;4930754;29;20035;-83
2023/08/13 01:34:36;;;;;;;13.38;2.25;;;16.80;99.90;;;;;;4932355;29;20036;-82
2023/08/13 01:37:03;;;;;;;17.98;2.38;;;16.80;99.90;;;;;;4933152;29;20047;-82
2023/08/13 01:39:29;;;;;;;8.07;1.85;;;16.90;99.90;;;;;;4931943;29;20113;-82
2023/08/13 01:41:56;;;;;;;15.30;3.72;;;16.90;99.90;;;;;;4925606;29;20024;-83
2023/08/13 01:44:21;;;;;;;23.02;2.47;;;16.90;99.90;;;;;;4914485;29;20123;-82
2023/08/13 01:46:47;;;;;;;18.33;3.40;;;16.90;99.90;;;;;;4914117;29;20106;-82
2023/08/13 01:49:13;;;;;;;11.10;2.28;;;16.80;99.90;;;;;;4914488;29;20035;-83
2023/08/13 01:51:39;;;;;;;16.10;2.33;;;16.80;99.90;;;;;;4914994;29;20524;-82
2023/08/13 01:54:05;;;;;;;14.40;2.55;;;16.80;99.90;;;;;;4917756;29;20127;-83
2023/08/13 01:56:30;;;;;;;16.58;2.40;;;16.80;99.90;;;;;;4918458;29;20036;-82
2023/08/13 01:58:56;;;;;;;12.25;2.08;;;16.90;99.90;;;;;;4918102;29;20374;-82
2023/08/13 02:01:22;;;;;;;15.05;2.85;;;16.90;99.90;;;;;;4916764;29;20088;-83
2023/08/13 02:03:48;;;;;;;10.95;2.53;;;16.90;99.90;;;;;;4917872;29;20551;-84
2023/08/13 02:06:13;;;;;;;9.15;2.63;;;17.00;99.90;;;;;;4918394;29;20039;-83
2023/08/13 02:08:39;;;;;;;13.38;2.80;;;16.90;99.90;;;;;;4945472;23;20062;-84
2023/08/13 02:11:04;;;;;;;11.50;2.30;;;17.00;99.90;;;;;;4950969;28;20023;-85
2023/08/13 02:13:30;;;;;;;14.10;2.53;;;17.00;99.90;;;;;;4951091;28;20027;-83
2023/08/13 02:16:05;;;;;;;16.58;2.97;;;16.90;99.90;;;;;;4954045;28;20027;-83
2023/08/13 02:18:31;;;;;;;9.82;1.90;;;16.80;99.90;;;;;;4947665;28;20110;-85
2023/08/13 02:20:57;;;;;;;15.45;2.80;;;16.80;99.90;;;;;;4936682;29;20404;-85
2023/08/13 02:23:23;;;;;;;13.15;2.70;;;16.90;99.90;;;;;;4935641;29;20039;-87
2023/08/13 02:25:49;;;;;;;11.93;2.55;;;16.90;99.90;;;;;;4933651;29;20370;-85
2023/08/13 02:28:15;;;;;;;12.98;2.22;;;16.90;99.90;;;;;;4936244;29;20484;-84
2023/08/13 02:30:40;;;;;;;17.17;3.15;;;16.90;99.90;;;;;;4935626;29;20030;-85
2023/08/13 02:33:06;;;;;;;15.52;2.50;;;16.90;99.90;;;;;;4933108;29;20070;-85
2023/08/13 02:35:31;;;;;;;12.98;2.05;;;16.90;99.90;;;;;;4924783;29;20478;-86
2023/08/13 02:37:57;;;;;;;12.50;2.55;;;16.90;99.90;;;;;;4924854;29;20102;-85
2023/08/13 02:40:23;;;;;;;9.98;2.10;;;16.90;99.90;;;;;;4926120;29;20029;-85
2023/08/13 02:42:48;;;;;;;13.85;2.30;;;16.80;99.90;;;;;;4927762;29;20500;-84
2023/08/13 02:45:14;;;;;;;10.27;1.80;;;16.80;99.90;;;;;;4928909;29;20409;-85
2023/08/13 02:47:40;;;;;;;13.95;2.28;;;16.80;99.90;;;;;;4927844;29;20477;-85
2023/08/13 02:50:06;;;;;;;11.85;2.83;;;16.80;99.90;;;;;;4931495;29;20027;-84
2023/08/13 02:52:32;;;;;;;12.50;2.65;;;16.80;99.90;;;;;;4934073;29;20016;-84
2023/08/13 02:54:57;;;;;;;11.63;2.30;;;16.80;99.90;;;;;;4932162;29;20027;-84
2023/08/13 02:57:23;;;;;;;15.85;4.03;;;16.80;99.90;;;;;;4934059;29;20024;-85
2023/08/13 02:59:49;;;;;;;14.15;2.28;;;16.80;99.90;;;;;;4925240;29;20012;-85
2023/08/13 03:02:16;;;;;;;20.55;2.53;;;16.80;99.90;;;;;;4931503;29;20043;-86
2023/08/13 03:04:42;;;;;;;15.98;3.78;;;16.80;99.90;;;;;;4925655;29;20025;-84
2023/08/13 03:07:08;;;;;;;14.85;2.42;;;16.70;99.90;;;;;;4932190;29;20103;-85
2023/08/13 03:09:33;;;;;;;16.88;2.38;;;16.60;99.90;;;;;;4942826;23;20548;-82
2023/08/13 03:11:59;;;;;;;21.17;3.95;;;16.70;99.90;;;;;;4916181;29;20027;-83
2023/08/13 03:14:25;;;;;;;15.38;2.50;;;16.60;99.90;;;;;;4916439;29;20051;-82
2023/08/13 03:16:50;;;;;;;16.55;1.88;;;16.70;99.90;;;;;;4916008;29;20099;-82
2023/08/13 03:19:16;;;;;;;20.25;2.90;;;16.70;99.90;;;;;;4915847;29;20039;-82
2023/08/13 03:21:41;;;;;;;22.20;2.75;;;16.70;99.90;;;;;;4918248;29;20052;-83
2023/08/13 03:24:07;;;;;;;14.40;2.53;;;16.80;99.90;;;;;;4915672;29;20036;-83
2023/08/13 03:26:33;;;;;;;14.13;2.95;;;16.80;99.90;;;;;;4915397;29;20111;-82
2023/08/13 03:28:58;;;;;;;21.67;2.67;;;16.80;99.90;;;;;;4921009;29;20023;-83
2023/08/13 03:31:24;;;;;;;17.35;2.80;;;16.70;99.90;;;;;;4918163;29;20036;-83
2023/08/13 03:33:50;;;;;;;12.13;3.03;;;16.80;99.90;;;;;;4915611;29;20025;-83
2023/08/13 03:36:16;;;;;;;13.30;2.25;;;16.70;99.90;;;;;;4916149;29;20060;-84
2023/08/13 03:38:42;;;;;;;15.70;2.35;;;16.70;99.90;;;;;;4915383;29;20028;-83
2023/08/13 03:41:08;;;;;;;14.93;2.38;;;16.70;99.90;;;;;;4915851;29;20024;-82
2023/08/13 03:43:34;;;;;;;31.60;2.90;;;16.60;99.90;;;;;;4914712;29;20052;-81
2023/08/13 03:46:01;;;;;;;12.10;2.22;;;16.50;99.90;;;;;;4914816;29;20060;-81
2023/08/13 03:48:26;;;;;;;13.68;2.10;;;16.50;99.90;;;;;;4914587;29;20043;-82
2023/08/13 03:50:52;;;;;;;12.13;2.65;;;16.50;99.90;;;;;;4916096;29;20669;-81
2023/08/13 03:53:22;;;;;;;18.83;2.72;;;16.40;99.90;;;;;;4914848;29;20056;-82
2023/08/13 03:55:48;;;;;;;16.95;3.38;;;16.40;99.90;;;;;;4915733;29;20029;-82
2023/08/13 03:58:13;;;;;;;23.17;2.50;;;16.40;99.90;;;;;;4920309;29;20043;-82
2023/08/13 04:00:39;;;;;;;12.55;2.45;;;16.40;99.90;;;;;;4915930;29;20021;-83
2023/08/13 04:03:05;;;;;;;14.80;3.63;;;16.40;99.90;;;;;;4915974;29;20043;-81
2023/08/13 04:05:30;;;;;;;19.95;2.70;;;16.40;99.90;;;;;;4915944;29;20033;-83
2023/08/13 04:10:30;;;;;;;18.50;3.08;;;16.50;99.90;;;;;;4900823;29;20052;-84
2023/08/13 04:12:56;;;;;;;18.05;3.15;;;16.60;99.90;;;;;;4903396;29;20028;-84
2023/08/13 04:15:22;;;;;;;21.08;3.03;;;16.60;99.90;;;;;;4903577;29;20107;-84
2023/08/13 04:17:48;;;;;;;16.80;2.30;;;16.60;99.90;;;;;;4904765;29;20038;-84
2023/08/13 04:20:14;;;;;;;33.38;4.07;;;16.70;99.90;;;;;;4893664;29;20024;-84
2023/08/13 04:22:40;;;;;;;17.40;3.35;;;16.80;99.90;;;;;;4896006;29;20478;-84
2023/08/13 04:25:07;;;;;;;11.43;2.38;;;16.80;99.90;;;;;;4896967;29;20067;-86
2023/08/13 04:27:33;;;;;;;17.70;2.63;;;16.80;99.90;;;;;;4897487;29;20080;-85
2023/08/13 04:29:59;;;;;;;18.90;2.70;;;16.80;99.90;;;;;;4902382;29;20020;-84
2023/08/13 04:32:25;;;;;;;9.38;2.42;;;16.90;99.90;;;;;;4897681;29;20025;-86
2023/08/13 04:34:51;;;;;;;15.68;3.00;;;16.90;99.90;;;;;;4902620;29;20028;-84
2023/08/13 04:37:16;;;;;;;16.17;2.85;;;16.90;99.90;;;;;;4896955;29;20080;-84
2023/08/13 04:39:42;;;;;;;13.35;2.50;;;16.90;99.90;;;;;;4895310;29;20063;-85
2023/08/13 04:42:07;;;;;;;25.73;3.60;;;16.90;99.90;;;;;;4902231;29;20544;-85
2023/08/13 04:44:33;;;;;;;17.42;2.88;;;16.90;99.90;;;;;;4902673;29;20055;-84
2023/08/13 04:46:59;;;;;;;13.60;2.50;;;16.80;99.90;;;;;;4899476;29;20055;-84
2023/08/13 04:49:24;;;;;;;23.45;4.03;;;16.80;99.90;;;;;;4907067;29;20050;-86
2023/08/13 04:51:50;;;;;;;14.60;2.85;;;16.80;99.90;;;;;;4900978;29;20426;-84
2023/08/13 04:54:16;;;;;;;15.57;3.15;;;16.90;99.90;;;;;;4898022;29;20551;-84
2023/08/13 04:56:41;;;;;;;20.33;2.88;;;16.80;99.90;;;;;;4897005;29;20514;-85
2023/08/13 04:59:07;;;;;;;20.48;2.38;;;16.90;99.90;;;;;;4896819;29;20393;-84
2023/08/13 05:01:32;;;;;;;21.35;3.17;;;16.80;99.90;;;;;;4896147;29;20470;-84
2023/08/13 05:03:58;;;;;;;15.25;3.10;;;16.80;99.90;;;;;;4902881;29;20032;-84
2023/08/13 05:06:24;;;;;;;9.88;2.33;;;16.90;99.90;;;;;;4903029;29;20103;-85
2023/08/13 05:08:49;;;;;;;23.83;3.17;;;17.00;99.90;;;;;;4917138;23;20140;-79
2023/08/13 05:11:15;;;;;;;18.92;3.35;;;17.00;99.90;;;;;;4862032;29;20038;-84
2023/08/13 05:13:41;;;;;;;16.30;4.55;;;17.10;99.90;;;;;;4859979;29;20037;-82
2023/08/13 05:16:07;;;;;;;10.93;1.98;;;17.10;99.90;;;;;;4859833;29;20037;-81
2023/08/13 05:18:32;;;;;;;26.45;3.38;;;17.10;99.90;;;;;;4865911;29;20067;-84
2023/08/13 05:20:58;;;;;;;19.90;3.08;;;17.10;99.90;;;;;;4875816;29;20017;-81
2023/08/13 05:23:24;;;;;;;13.48;2.38;;;17.10;99.90;;;;;;4876013;29;20060;-82
2023/08/13 05:25:50;;;;;;;19.48;3.40;;;17.20;99.90;;;;;;4874923;29;20029;-82
2023/08/13 05:28:15;;;;;;;19.00;4.55;;;17.20;99.90;;;;;;4881181;29;20040;-83
2023/08/13 05:30:41;;;;;;;19.02;2.92;;;17.20;99.90;;;;;;4874066;29;20021;-83
2023/08/13 05:33:06;;;;;;;15.55;2.72;;;17.20;99.90;;;;;;4876096;29;20041;-82
2023/08/13 05:35:32;;;;;;;16.05;2.67;;;17.20;99.90;;;;;;4876380;29;20069;-82
2023/08/13 05:37:58;;;;;;;14.52;2.88;;;17.20;99.90;;;;;;4876260;29;20096;-85
2023/08/13 05:40:24;;;;;;;18.83;3.53;;;17.30;99.90;;;;;;4874685;29;20044;-82
2023/08/13 05:42:50;;;;;;;18.67;3.85;;;17.30;99.90;;;;;;4875564;29;20073;-82
2023/08/13 05:45:15;;;;;;;10.38;2.38;;;17.40;99.90;;;;;;4876679;29;20048;-83
2023/08/13 05:47:41;;;;;;;14.02;3.78;;;17.50;99.90;;;;;;4876554;29;20092;-82
2023/08/13 05:50:08;;;;;;;15.85;3.70;;;17.50;99.90;;;;;;4876619;29;20055;-82
2023/08/13 05:52:33;;;;;;;21.80;2.95;;;17.50;99.90;;;;;;4874983;29;20093;-82
2023/08/13 05:54:59;;;;;;;19.33;3.55;;;17.60;99.90;;;;;;4876137;29;20029;-82
2023/08/13 05:57:25;;;;;;;26.15;2.85;;;17.60;99.90;;;;;;4877120;29;20132;-81
2023/08/13 05:59:50;;;;;;;15.82;2.70;;;17.50;99.90;;;;;;4875352;29;20368;-81
2023/08/13 06:02:16;;;;;;;14.27;2.58;;;17.60;99.90;;;;;;4874908;29;20033;-81
2023/08/13 06:04:42;;;;;;;14.93;2.53;;;17.50;99.90;;;;;;4876834;29;20031;-82
2023/08/13 06:07:08;;;;;;;15.45;3.63;;;17.50;99.90;;;;;;4876522;29;20400;-83
2023/08/13 06:09:34;;;;;;;13.30;2.60;;;17.50;99.90;;;;;;4901233;23;20045;-86
2023/08/13 06:12:00;;;;;;;12.40;2.35;;;17.60;99.90;;;;;;4907963;29;20108;-88
2023/08/13 06:14:26;;;;;;;19.33;2.72;;;17.60;99.90;;;;;;4896610;29;20493;-88
2023/08/13 06:16:51;;;;;;;18.23;3.20;;;17.60;99.90;;;;;;4897176;29;20032;-84
2023/08/13 06:19:17;;;;;;;30.17;3.35;;;17.60;99.90;;;;;;4900383;29;20033;-85
2023/08/13 06:21:42;;;;;;;17.95;3.13;;;17.60;99.90;;;;;;4892590;29;20025;-88
2023/08/13 06:24:08;;;;;;;16.85;3.25;;;17.70;99.90;;;;;;4893398;29;20040;-88
2023/08/13 06:26:34;;;;;;;18.30;2.90;;;17.70;99.90;;;;;;4895647;29;20024;-87
2023/08/13 06:29:00;;;;;;;15.73;2.80;;;17.70;99.90;;;;;;4894876;29;20076;-87
2023/08/13 06:31:26;;;;;;;16.05;2.35;;;17.70;99.90;;;;;;4894829;29;20104;-87
2023/08/13 06:33:52;;;;;;;10.77;2.30;;;17.70;99.90;;;;;;4895011;29;20024;-85
2023/08/13 06:36:17;;;;;;;15.82;2.80;;;17.80;99.90;;;;;;4895057;29;20036;-86
2023/08/13 06:38:43;;;;;;;16.00;2.90;;;17.80;99.90;;;;;;4894506;29;20376;-85
2023/08/13 06:41:09;;;;;;;15.18;2.70;;;17.80;99.90;;;;;;4897831;29;20035;-88
2023/08/13 06:43:35;;;;;;;23.83;3.72;;;17.80;99.90;;;;;;4896751;29;20374;-85
2023/08/13 06:46:01;;;;;;;18.00;3.10;;;18.00;99.90;;;;;;4896904;29;20040;-88
2023/08/13 06:48:30;;;;;;;15.00;2.17;;;18.30;99.90;;;;;;4897418;29;20036;-88
2023/08/13 06:50:56;;;;;;;13.82;3.03;;;18.60;99.90;;;;;;4885735;29;20053;-86
2023/08/13 06:53:22;;;;;;;12.18;2.25;;;18.70;99.90;;;;;;4897951;29;20103;-88
2023/08/13 06:55:48;;;;;;;15.82;2.30;;;18.80;99.90;;;;;;4898362;29;20434;-87
2023/08/13 06:58:14;;;;;;;10.07;1.92;;;18.90;99.90;;;;;;4894047;29;20037;-87
2023/08/13 07:00:44;;;;;;;21.77;3.22;;;18.90;99.90;;;;;;4898152;29;20033;-87
2023/08/13 07:03:10;;;;;;;12.88;2.47;;;19.00;99.90;;;;;;4898020;29;20040;-89
2023/08/13 07:05:36;;;;;;;13.98;2.30;;;18.90;99.90;;;;;;4897410;29;20025;-88
2023/08/13 07:10:40;;;;;;;19.80;3.15;;;19.00;99.90;;;;;;4908722;29;20061;-83
2023/08/13 07:13:06;;;;;;;13.18;2.83;;;19.00;99.90;;;;;;4916260;29;20059;-83
2023/08/13 07:15:32;;;;;;;13.07;3.45;;;19.10;99.90;;;;;;4915580;29;20048;-83
2023/08/13 07:17:58;;;;;;;15.73;2.95;;;19.20;99.90;;;;;;4909311;29;20027;-83
2023/08/13 07:20:24;;;;;;;11.98;2.00;;;19.20;99.90;;;;;;4904254;29;20469;-86
2023/08/13 07:22:50;;;;;;;11.50;1.88;;;19.30;99.90;;;;;;4898608;29;20033;-82
2023/08/13 07:25:15;;;;;;;12.25;2.10;;;19.30;99.90;;;;;;4898965;29;20458;-82
2023/08/13 07:27:42;;;;;;;8.05;2.10;;;19.40;99.90;;;;;;4908030;29;20033;-82
2023/08/13 07:30:10;;;;;;;14.23;2.20;;;19.40;99.90;;;;;;4898292;29;20028;-82
2023/08/13 07:32:37;;;;;;;15.70;2.20;;;19.50;99.90;;;;;;4897237;29;20021;-82
2023/08/13 07:35:04;;;;;;;14.75;2.63;;;19.40;99.90;;;;;;4898388;29;20027;-81
2023/08/13 07:37:30;;;;;;;12.25;2.63;;;19.50;99.90;;;;;;4898248;29;20031;-82
2023/08/13 07:39:58;;;;;;;12.45;2.25;;;19.50;99.90;;;;;;4903111;29;20024;-82
2023/08/13 07:42:24;;;;;;;12.88;2.65;;;19.60;99.90;;;;;;4898224;29;20021;-82
2023/08/13 07:44:50;;;;;;;7.25;1.83;;;19.50;99.90;;;;;;4901195;29;20401;-82
2023/08/13 07:47:16;;;;;;;10.32;1.90;;;19.60;99.90;;;;;;4907944;29;20542;-82
2023/08/13 07:49:42;;;;;;;13.30;2.15;;;19.70;99.90;;;;;;4896533;29;20405;-82
2023/08/13 07:52:08;;;;;;;10.02;1.75;;;19.60;99.90;;;;;;4900384;29;20032;-83
2023/08/13 07:54:36;;;;;;;13.70;2.50;;;19.80;99.90;;;;;;4903927;29;20055;-82
2023/08/13 07:57:03;;;;;;;12.90;2.35;;;19.90;99.90;;;;;;4897116;29;20068;-82
2023/08/13 07:59:29;;;;;;;10.27;2.80;;;20.10;99.90;;;;;;4897796;29;20017;-81
2023/08/13 08:01:55;;;;;;;11.07;1.45;;;20.10;99.90;;;;;;4901247;29;20024;-82
2023/08/13 08:04:20;;;;;;;7.32;2.40;;;20.10;99.90;;;;;;4901193;29;20036;-82
2023/08/13 08:06:46;;;;;;;5.97;1.48;;;20.10;99.90;;;;;;4897770;29;20021;-82
2023/08/13 08:09:12;;;;;;;5.45;1.38;;;20.10;99.90;;;;;;4935188;23;20051;-87
2023/08/13 08:11:37;;;;;;;6.75;1.30;;;20.30;99.90;;;;;;4943760;28;20049;-88
2023/08/13 08:14:03;;;;;;;4.35;1.30;;;20.30;99.70;;;;;;4940210;28;20024;-87
2023/08/13 08:16:29;;;;;;;6.95;1.05;;;20.40;99.90;;;;;;4941927;28;20034;-90
2023/08/13 08:18:54;;;;;;;6.57;2.22;;;20.50;99.00;;;;;;4939288;28;20019;-87
2023/08/13 08:21:20;;;;;;;13.00;2.40;;;20.50;98.50;;;;;;4919230;29;20106;-90
2023/08/13 08:23:46;;;;;;;8.30;1.55;;;20.70;98.30;;;;;;4916283;29;20080;-88
2023/08/13 08:26:11;;;;;;;7.85;1.42;;;20.50;98.80;;;;;;4917412;29;20373;-88
2023/08/13 08:28:37;;;;;;;5.68;1.30;;;20.40;99.10;;;;;;4916856;29;20499;-88
2023/08/13 08:31:03;;;;;;;10.35;1.60;;;20.30;98.90;;;;;;4916171;29;20080;-85
2023/08/13 08:33:28;;;;;;;6.47;1.48;;;20.30;99.10;;;;;;4914913;29;20024;-86
2023/08/13 08:35:54;;;;;;;5.90;1.20;;;20.20;99.30;;;;;;4915691;29;20111;-87
2023/08/13 08:38:20;;;;;;;4.40;1.20;;;20.30;98.60;;;;;;4914513;29;20482;-87
2023/08/13 08:40:47;;;;;;;9.88;1.38;;;20.20;98.40;;;;;;4918721;29;20024;-86
2023/08/13 08:43:14;;;;;;;7.97;1.38;;;20.20;99.10;;;;;;4915659;29;20498;-88
2023/08/13 08:45:41;;;;;;;8.57;1.50;;;20.10;99.20;;;;;;4915166;29;20024;-87
2023/08/13 08:48:07;;;;;;;8.88;2.03;;;20.00;99.90;;;;;;4915973;29;20095;-89
2023/08/13 08:50:35;;;;;;;6.65;1.38;;;20.10;99.90;;;;;;4916394;29;20020;-87
2023/08/13 08:53:01;;;;;;;17.55;1.88;;;20.10;99.90;;;;;;4916153;29;20067;-88
2023/08/13 08:55:27;;;;;;;11.60;1.67;;;20.20;99.90;;;;;;4916640;29;20024;-88
2023/08/13 08:57:56;;;;;;;5.57;1.58;;;20.00;99.80;;;;;;4917254;29;20115;-90
2023/08/13 09:00:22;;;;;;;8.35;1.50;;;19.90;99.90;;;;;;4920172;29;20083;-87
2023/08/13 09:02:48;;;;;;;9.73;1.85;;;19.90;99.90;;;;;;4918765;29;20032;-87
2023/08/13 09:05:15;;;;;;;12.05;2.25;;;20.20;99.90;;;;;;4917616;29;20122;-87
2023/08/13 09:07:42;;;;;;;6.85;1.70;;;20.50;99.60;;;;;;4921853;29;20028;-88
2023/08/13 09:10:09;;;;;;;7.80;1.52;;;21.00;99.70;;;;;;4914850;29;20171;-90
2023/08/13 09:12:41;;;;;;;10.88;2.40;;;21.30;98.50;;;;;;4922723;29;20020;-87
2023/08/13 09:15:11;;;;;;;7.70;1.58;;;21.20;99.90;;;;;;4919939;29;20032;-92
2023/08/13 09:17:40;;;;;;;3.17;0.90;;;20.70;99.90;;;;;;4920660;29;20477;-88
2023/08/13 09:20:17;;;;;;;3.72;1.45;;;20.00;99.90;;;;;;4923027;29;20282;-88
2023/08/13 09:22:47;;;;;;;3.65;1.05;;;19.40;99.70;;;;;;4916439;29;20024;-89
2023/08/13 09:25:16;;;;;;;4.28;1.17;;;19.00;99.90;;;;;;4915359;29;20490;-87
2023/08/13 09:27:43;;;;;;;6.18;1.85;;;18.90;99.90;;;;;;4916465;29;20087;-86
2023/08/13 09:30:18;;;;;;;6.72;1.50;;;19.10;99.90;;;;;;4915386;29;20024;-86
2023/08/13 09:32:46;;;;;;;4.90;1.17;;;19.50;99.90;;;;;;4916031;29;20024;-86
2023/08/13 09:35:11;;;;;;;4.90;1.50;;;20.00;99.90;;;;;;4915502;29;20024;-87
2023/08/13 09:37:38;;;;;;;8.02;2.10;;;20.30;99.90;;;;;;4915488;29;20028;-86
2023/08/13 09:40:05;;;;;;;12.45;2.58;;;20.40;99.90;;;;;;4932383;23;20048;-81
2023/08/13 09:42:33;;;;;;;8.70;1.80;;;20.20;99.90;;;;;;4910661;29;20039;-82
2023/08/13 09:45:05;;;;;;;11.45;1.60;;;20.10;99.90;;;;;;4903716;29;20129;-82
2023/08/13 09:47:34;;;;;;;7.03;1.98;;;20.20;99.90;;;;;;4900093;29;20047;-84
2023/08/13 09:50:01;;;;;;;8.18;1.40;;;20.00;99.90;;;;;;4892579;29;20039;-80
2023/08/13 09:52:27;;;;;;;7.88;1.58;;;20.00;99.90;;;;;;4894653;29;20033;-82
2023/08/13 09:55:17;;;;;;;7.05;1.75;;;20.00;99.90;;;;;;4893889;29;20100;-83
2023/08/13 09:57:44;;;;;;;5.03;1.17;;;20.00;99.90;;;;;;4894583;29;20398;-84
2023/08/13 10:00:12;;;;;;;10.00;1.80;;;20.00;99.90;;;;;;4895625;29;20040;-82
2023/08/13 10:02:39;;;;;;;10.27;1.75;;;20.00;99.90;;;;;;4895754;29;20012;-83
2023/08/13 10:05:05;;;;;;;11.45;2.17;;;20.40;99.90;;;;;;4895978;29;20035;-82
2023/08/13 10:07:32;;;;;;;12.15;1.67;;;20.60;99.90;;;;;;4893968;29;20036;-83
2023/08/13 10:10:00;;;;;;;6.95;1.98;;;20.60;99.90;;;;;;4895378;29;20081;-82
2023/08/13 10:12:26;;;;;;;5.45;1.30;;;20.80;99.90;;;;;;4892570;29;20020;-86
2023/08/13 10:14:52;;;;;;;4.60;1.33;;;21.80;99.90;;;;;;4899529;29;20025;-83
2023/08/13 10:17:18;;;;;;;8.60;2.08;;;23.10;96.80;;;;;;4904742;29;20056;-84
2023/08/13 10:19:51;;;;;;;7.40;1.10;;;24.60;93.40;;;;;;4899430;29;20025;-83
2023/08/13 10:22:31;;;;;;;7.45;1.20;;;24.70;91.70;;;;;;4898622;29;20035;-85
2023/08/13 10:24:57;;;;;;;6.15;1.65;;;25.00;91.00;;;;;;4898196;29;20048;-82
2023/08/13 10:27:23;;;;;;;9.93;1.90;;;25.00;90.70;;;;;;4897879;29;20031;-83
2023/08/13 10:29:49;;;;;;;12.57;1.60;;;25.40;89.70;;;;;;4899025;29;20111;-84
2023/08/13 10:32:16;;;;;;;7.05;1.85;;;25.10;88.10;;;;;;4903620;29;20020;-82
2023/08/13 10:36:51;;;;;;;8.80;2.17;;;24.00;87.00;;;;;;5128843;27;20379;-83
2023/08/13 10:39:45;;;;;;;7.28;1.77;;;23.60;91.10;;;;;;5103959;22;20073;-88
2023/08/13 10:42:37;;;;;;;7.88;1.55;;;22.60;92.10;;;;;;5002479;28;20090;-86
2023/08/13 10:45:08;;;;;;;10.98;2.28;;;21.80;93.70;;;;;;5008454;28;20391;-87
2023/08/13 10:48:00;;;;;;;5.75;1.83;;;21.70;94.90;;;;;;5002320;28;20022;-84
2023/08/13 10:50:54;;;;;;;7.95;1.58;;;21.70;96.20;;;;;;5014996;28;20537;-84
2023/08/13 10:53:25;;;;;;;14.02;2.30;;;21.60;97.80;;;;;;5000967;28;20026;-86
2023/08/13 10:55:53;;;;;;;8.95;1.95;;;21.40;99.00;;;;;;5007047;28;20065;-86
2023/08/13 10:58:26;;;;;;;7.78;1.88;;;21.20;98.60;;;;;;5008111;28;20660;-85
2023/08/13 11:00:56;;;;;;;7.05;1.70;;;20.80;99.00;;;;;;5008142;28;20034;-86
2023/08/13 11:03:25;;;;;;;9.85;1.30;;;22.20;99.90;;;;;;5006789;28;20527;-87
2023/08/13 11:05:51;;;;;;;8.48;1.23;;;23.30;94.00;;;;;;5006656;28;20514;-87
2023/08/13 11:08:20;;;;;;;7.82;1.50;;;23.30;91.60;;;;;;5006841;28;20022;-85
2023/08/13 11:10:47;;;;;;;5.45;1.63;;;23.20;92.00;;;;;;5006750;28;20077;-86
2023/08/13 11:13:15;;;;;;;3.88;1.15;;;23.30;91.20;;;;;;5006287;28;20076;-87
2023/08/13 11:15:48;;;;;;;8.93;1.33;;;24.00;91.00;;;;;;5023292;28;20053;-87
2023/08/13 11:18:14;;;;;;;7.07;1.20;;;24.20;89.20;;;;;;5005915;28;20056;-87
2023/08/13 11:20:40;;;;;;;6.43;1.10;;;24.00;90.20;;;;;;5006111;28;20034;-86
2023/08/13 11:23:05;;;;;;;8.32;1.70;;;23.90;88.20;;;;;;5007029;28;20029;-86
2023/08/13 11:25:31;;;;;;;6.47;1.65;;;23.30;91.00;;;;;;5005746;28;20383;-87
2023/08/13 11:27:58;;;;;;;6.18;1.67;;;23.50;90.90;;;;;;5005770;28;20027;-86
2023/08/13 11:30:24;;;;;;;6.75;1.48;;;23.30;90.40;;;;;;5006548;28;20030;-85
2023/08/13 11:32:50;;;;;;;6.80;1.52;;;22.70;91.20;;;;;;5006332;28;20018;-89
2023/08/13 11:35:17;;;;;;;8.18;1.60;;;22.60;92.50;;;;;;5006266;28;20033;-86
2023/08/13 11:37:42;;;;;;;10.93;1.52;;;22.80;91.50;;;;;;5005735;28;20505;-88
2023/08/13 11:40:11;;;;;;;9.63;2.33;;;23.00;91.50;;;;;;5054384;22;20041;-85
2023/08/13 11:42:50;;;;;;;9.75;1.45;;;23.10;91.20;;;;;;5045213;28;20485;-87
2023/08/13 11:45:16;;;;;;;7.43;1.77;;;23.50;90.10;;;;;;5042819;28;20021;-86
2023/08/13 11:47:42;;;;;;;6.93;1.77;;;24.60;88.40;;;;;;5027580;28;20355;-87
2023/08/13 11:50:21;;;;;;;7.22;1.75;;;25.10;84.40;;;;;;5032666;28;20477;-84
2023/08/13 11:53:07;;;;;;;5.50;1.40;;;25.50;83.30;;;;;;5033484;28;20151;-85
2023/08/13 11:55:33;;;;;;;6.97;1.55;;;25.40;80.50;;;;;;5031983;28;20493;-84
2023/08/13 11:57:59;;;;;;;8.60;1.85;;;25.40;81.50;;;;;;5034054;28;20055;-86
2023/08/13 12:00:26;;;;;;;8.65;2.03;;;25.20;82.00;;;;;;5033701;28;20108;-83
2023/08/13 12:02:59;;;;;;;9.52;1.85;;;24.80;83.80;;;;;;5032272;28;20032;-85
2023/08/13 12:05:32;;;;;;;5.53;1.63;;;25.00;83.50;;;;;;5033147;28;20040;-84
2023/08/13 12:07:59;;;;;;;9.27;1.65;;;25.00;84.90;;;;;;5032501;28;20022;-86
2023/08/13 12:10:26;;;;;;;9.45;1.77;;;25.20;83.30;;;;;;5032933;28;20026;-86
2023/08/13 12:12:52;;;;;;;7.68;1.48;;;25.00;81.80;;;;;;5033838;28;20076;-86
2023/08/13 12:15:25;;;;;;;10.32;1.55;;;25.30;81.50;;;;;;5031162;28;20486;-86
2023/08/13 12:17:55;;;;;;;5.93;1.60;;;25.00;79.90;;;;;;5033156;28;20025;-86
2023/08/13 12:20:22;;;;;;;10.27;1.98;;;25.00;82.80;;;;;;5025981;28;20045;-84
2023/08/13 12:22:48;;;;;;;6.38;1.40;;;24.90;82.00;;;;;;5031862;28;20041;-81
2023/08/13 12:25:14;;;;;;;9.75;1.92;;;25.00;83.50;;;;;;5031499;28;20108;-84
2023/08/13 12:27:40;;;;;;;8.77;2.33;;;25.40;80.90;;;;;;5033425;28;20529;-86
2023/08/13 12:30:06;;;;;;;7.75;1.95;;;25.30;82.50;;;;;;5033110;28;20108;-88
2023/08/13 12:32:32;;;;;;;8.73;1.55;;;25.30;79.90;;;;;;5032582;28;20104;-82
2023/08/13 12:34:58;;;;;;;7.10;1.70;;;25.50;82.00;;;;;;5033510;28;20121;-89
2023/08/13 12:37:24;;;;;;;6.35;1.45;;;26.00;79.90;;;;;;5032978;28;20021;-84
2023/08/13 12:39:50;;;;;;;6.55;1.67;;;25.90;78.10;;;;;;5072615;22;20055;-85
2023/08/13 12:42:16;;;;;;;13.35;2.10;;;26.30;80.10;;;;;;5078286;28;20035;-91
2023/08/13 12:44:41;;;;;;;8.80;2.15;;;26.60;77.60;;;;;;5078268;28;20056;-88
2023/08/13 12:47:07;;;;;;;9.10;1.77;;;26.10;78.10;;;;;;5080863;28;20350;-87